createdAt,value
2023-04-21T00:00:10.995Z,100864.41
2023-04-21T00:03:01.869Z,100864.75
2023-04-21T00:05:31.208Z,100857.66
2023-04-21T00:08:00.064Z,100865.78
2023-04-21T00:10:30.378Z,100862.50
2023-04-21T00:12:59.022Z,100863.66
2023-04-21T00:15:27.994Z,100860.47
2023-04-21T00:17:58.184Z,100858.88
2023-04-21T00:20:27.743Z,100862.34
2023-04-21T00:22:56.720Z,100857.41
2023-04-21T00:25:26.265Z,100856.44
2023-04-21T00:27:56.340Z,100858.22
2023-04-21T00:30:25.497Z,100858.44
2023-04-21T00:32:54.301Z,100853.16
2023-04-21T00:35:24.764Z,100853.78
2023-04-21T00:37:53.418Z,100852.25
2023-04-21T00:40:22.597Z,100850.78
2023-04-21T00:42:51.318Z,100849.31
2023-04-21T00:45:21.791Z,100851.41
2023-04-21T00:47:52.449Z,100859.69
2023-04-21T00:50:21.710Z,100855.94
2023-04-21T00:52:50.955Z,100856.00
2023-04-21T00:55:20.533Z,100851.78
2023-04-21T00:57:51.806Z,100852.72
2023-04-21T01:00:22.359Z,100851.00
2023-04-21T01:02:51.825Z,100847.63
2023-04-21T01:05:21.325Z,100852.25
2023-04-21T01:07:50.523Z,100848.88
2023-04-21T01:10:19.514Z,100846.34
2023-04-21T01:12:49.120Z,100845.03
2023-04-21T01:15:18.963Z,100849.56
2023-04-21T01:17:49.839Z,100843.53
2023-04-21T01:20:19.020Z,100845.59
2023-04-21T01:22:51.253Z,100839.69
2023-04-21T01:25:22.809Z,100837.47
2023-04-21T01:27:52.103Z,100843.91
2023-04-21T01:30:23.456Z,100844.97
2023-04-21T01:32:53.115Z,100840.94
2023-04-21T01:35:22.279Z,100844.13
2023-04-21T01:37:52.376Z,100840.09
2023-04-21T01:40:22.036Z,100848.06
2023-04-21T01:42:50.666Z,100842.25
2023-04-21T01:45:19.660Z,100833.59
2023-04-21T01:47:48.373Z,100847.03
2023-04-21T01:50:17.344Z,100846.53
2023-04-21T01:52:46.042Z,100841.38
2023-04-21T01:55:19.138Z,100849.53
2023-04-21T01:57:47.899Z,100842.03
2023-04-21T02:00:17.953Z,100837.69
2023-04-21T02:02:46.853Z,100844.81
2023-04-21T02:05:16.164Z,100842.28
2023-04-21T02:07:44.997Z,100842.19
2023-04-21T02:10:14.533Z,100843.13
2023-04-21T02:12:46.771Z,100839.91
2023-04-21T02:15:15.822Z,100844.53
2023-04-21T02:17:45.276Z,100837.50
2023-04-21T02:20:14.403Z,100843.03
2023-04-21T02:22:43.115Z,100835.41
2023-04-21T02:25:12.130Z,100840.75
2023-04-21T02:27:41.163Z,100835.56
2023-04-21T02:30:12.302Z,100842.03
2023-04-21T02:32:41.105Z,100845.72
2023-04-21T02:35:11.008Z,100836.13
2023-04-21T02:37:39.770Z,100832.75
2023-04-21T02:40:10.619Z,100835.44
2023-04-21T02:42:39.250Z,100829.53
2023-04-21T02:45:12.085Z,100840.22
2023-04-21T02:47:40.796Z,100846.59
2023-04-21T02:50:10.956Z,100838.00
2023-04-21T02:52:39.696Z,100838.22
2023-04-21T02:55:09.713Z,100839.34
2023-04-21T02:57:38.398Z,100833.59
2023-04-21T03:00:14.032Z,100840.72
2023-04-21T03:02:42.940Z,100835.84
2023-04-21T03:05:12.712Z,100836.09
2023-04-21T03:07:41.351Z,100835.25
2023-04-21T03:10:10.449Z,100832.63
2023-04-21T03:12:39.177Z,100833.63
2023-04-21T03:15:08.873Z,100840.66
2023-04-21T03:17:39.036Z,100836.34
2023-04-21T03:20:09.452Z,100840.91
2023-04-21T03:22:38.841Z,100828.91
2023-04-21T03:25:08.483Z,100828.16
2023-04-21T03:27:37.234Z,100830.94
2023-04-21T03:30:08.105Z,100839.75
2023-04-21T03:32:38.204Z,100827.81
2023-04-21T03:35:07.745Z,100839.91
2023-04-21T03:37:36.492Z,100839.38
2023-04-21T03:40:07.258Z,100839.38
2023-04-21T03:42:35.995Z,100838.56
2023-04-21T03:45:06.806Z,100830.91
2023-04-21T03:47:38.383Z,100843.28
2023-04-21T03:50:08.813Z,100839.00
2023-04-21T03:52:37.513Z,100838.03
2023-04-21T03:55:09.052Z,100848.53
2023-04-21T03:57:37.784Z,100843.22
2023-04-21T04:00:09.964Z,100845.66
2023-04-21T04:02:43.832Z,100851.09
2023-04-21T04:05:13.170Z,100852.88
2023-04-21T04:07:41.949Z,100856.41
2023-04-21T04:10:11.619Z,100854.47
2023-04-21T04:12:40.501Z,100851.09
2023-04-21T04:15:10.368Z,100862.41
2023-04-21T04:17:39.030Z,100864.81
2023-04-21T04:20:10.472Z,100861.41
2023-04-21T04:22:39.420Z,100866.31
2023-04-21T04:25:08.595Z,100864.47
2023-04-21T04:27:37.712Z,100871.31
2023-04-21T04:30:08.708Z,100864.03
2023-04-21T04:32:39.731Z,100875.13
2023-04-21T04:35:12.984Z,100873.09
2023-04-21T04:37:42.078Z,100870.91
2023-04-21T04:40:12.217Z,100874.13
2023-04-21T04:42:41.196Z,100875.53
2023-04-21T04:45:11.482Z,100877.53
2023-04-21T04:47:40.494Z,100872.94
2023-04-21T04:50:11.306Z,100875.97
2023-04-21T04:52:39.973Z,100878.00
2023-04-21T04:55:10.450Z,100875.88
2023-04-21T04:57:39.209Z,100878.03
2023-04-21T05:00:11.568Z,100880.97
2023-04-21T05:02:40.707Z,100872.84
2023-04-21T05:05:11.529Z,100879.25
2023-04-21T05:07:40.429Z,100873.59
2023-04-21T05:10:09.726Z,100875.59
2023-04-21T05:12:38.321Z,100877.56
2023-04-21T05:15:08.657Z,100869.31
2023-04-21T05:17:37.316Z,100883.50
2023-04-21T05:20:07.438Z,100881.06
2023-04-21T05:22:40.379Z,100869.75
2023-04-21T05:25:12.197Z,100876.25
2023-04-21T05:27:40.981Z,100879.25
2023-04-21T05:30:11.454Z,100882.53
2023-04-21T05:32:40.103Z,100885.03
2023-04-21T05:35:09.883Z,100885.84
2023-04-21T05:37:39.937Z,100887.47
2023-04-21T05:40:09.900Z,100881.28
2023-04-21T05:42:38.577Z,100874.16
2023-04-21T05:45:09.009Z,100881.78
2023-04-21T05:47:38.399Z,100883.91
2023-04-21T05:50:08.883Z,100883.84
2023-04-21T05:52:39.135Z,100880.75
2023-04-21T05:55:09.138Z,100880.19
2023-04-21T05:57:37.924Z,100874.75
2023-04-21T06:00:09.070Z,100877.53
2023-04-21T06:02:37.948Z,100874.63
2023-04-21T06:05:08.038Z,100874.19
2023-04-21T06:07:38.976Z,100876.94
2023-04-21T06:10:09.739Z,100869.03
2023-04-21T06:12:38.513Z,100867.34
2023-04-21T06:15:08.975Z,100871.97
2023-04-21T06:17:37.873Z,100869.38
2023-04-21T06:20:10.085Z,100872.63
2023-04-21T06:22:40.196Z,100876.59
2023-04-21T06:25:09.825Z,100870.34
2023-04-21T06:27:38.595Z,100875.66
2023-04-21T06:30:10.257Z,100871.03
2023-04-21T06:32:39.048Z,100873.88
2023-04-21T06:35:08.740Z,100868.56
2023-04-21T06:37:37.396Z,100863.69
2023-04-21T06:40:09.249Z,100867.50
2023-04-21T06:42:37.919Z,100867.97
2023-04-21T06:45:08.697Z,100865.00
2023-04-21T06:47:37.691Z,100873.63
2023-04-21T06:50:08.988Z,100859.88
2023-04-21T06:52:37.674Z,100861.53
2023-04-21T06:55:09.368Z,100856.81
2023-04-21T06:57:38.019Z,100858.81
2023-04-21T07:00:09.741Z,100860.56
2023-04-21T07:02:38.721Z,100864.53
2023-04-21T07:05:08.639Z,100864.53
2023-04-21T07:07:37.368Z,100870.03
2023-04-21T07:10:09.414Z,100851.84
2023-04-21T07:12:38.346Z,100859.28
2023-04-21T07:15:09.825Z,100866.41
2023-04-21T07:17:38.488Z,100862.09
2023-04-21T07:20:09.366Z,100864.16
2023-04-21T07:22:38.326Z,100867.97
2023-04-21T07:25:10.131Z,100859.53
2023-04-21T07:27:39.281Z,100868.75
2023-04-21T07:30:10.366Z,100867.38
2023-04-21T07:32:39.496Z,100863.75
2023-04-21T07:35:09.597Z,100870.63
2023-04-21T07:37:40.058Z,100867.91
2023-04-21T07:40:11.827Z,100865.06
2023-04-21T07:42:40.881Z,100865.44
2023-04-21T07:45:11.050Z,100862.28
2023-04-21T07:47:40.455Z,100858.72
2023-04-21T07:50:11.047Z,100864.31
2023-04-21T07:52:39.774Z,100862.19
2023-04-21T07:55:10.477Z,100859.81
2023-04-21T07:57:40.249Z,100854.19
2023-04-21T08:00:11.283Z,100852.94
2023-04-21T08:02:42.880Z,100853.63
2023-04-21T08:05:12.216Z,100848.00
2023-04-21T08:07:41.179Z,100847.63
2023-04-21T08:10:12.638Z,100847.06
2023-04-21T08:12:41.408Z,100858.59
2023-04-21T08:15:12.561Z,100846.91
2023-04-21T08:17:41.428Z,100846.69
2023-04-21T08:20:11.980Z,100846.88
2023-04-21T08:22:41.099Z,100855.13
2023-04-21T08:25:11.801Z,100843.41
2023-04-21T08:27:40.612Z,100848.09
2023-04-21T08:30:11.545Z,100852.84
2023-04-21T08:32:40.272Z,100855.97
2023-04-21T08:35:10.352Z,100836.91
2023-04-21T08:37:40.077Z,100847.06
2023-04-21T08:40:12.180Z,100846.34
2023-04-21T08:42:40.907Z,100841.72
2023-04-21T08:45:11.398Z,100840.78
2023-04-21T08:47:42.783Z,100836.19
2023-04-21T08:50:15.820Z,100839.63
2023-04-21T08:52:44.822Z,100830.59
2023-04-21T08:55:17.383Z,100829.88
2023-04-21T08:57:46.111Z,100832.50
2023-04-21T09:00:16.104Z,100832.69
2023-04-21T09:03:01.845Z,100818.41
2023-04-21T09:05:34.678Z,100827.44
2023-04-21T09:08:12.663Z,100819.09
2023-04-21T09:10:47.384Z,100818.09
2023-04-21T09:13:18.233Z,100816.28
2023-04-21T09:15:49.677Z,100833.41
2023-04-21T09:18:21.182Z,100818.09
2023-04-21T09:20:53.319Z,100823.84
2023-04-21T09:23:22.906Z,100812.16
2023-04-21T09:25:55.296Z,100822.69
2023-04-21T09:28:24.335Z,100820.88
2023-04-21T09:30:57.275Z,100812.03
2023-04-21T09:33:30.996Z,100812.78
2023-04-21T09:36:07.404Z,100808.56
2023-04-21T09:38:36.211Z,100812.44
2023-04-21T09:41:06.923Z,100816.03
2023-04-21T09:43:35.661Z,100820.22
2023-04-21T09:46:07.257Z,100813.00
2023-04-21T09:48:39.143Z,100804.97
2023-04-21T09:53:42.602Z,100792.09
2023-04-21T09:56:15.776Z,100792.16
2023-04-21T09:58:51.544Z,100798.31
2023-04-21T10:01:21.852Z,100791.41
2023-04-21T10:03:51.662Z,100795.66
2023-04-21T10:06:21.223Z,100794.81
2023-04-21T10:08:52.171Z,100780.16
2023-04-21T10:11:22.567Z,100784.50
2023-04-21T10:13:52.241Z,100783.63
2023-04-21T10:16:23.245Z,100778.56
2023-04-21T10:18:52.759Z,100775.59
2023-04-21T10:21:24.464Z,100766.94
2023-04-21T10:23:54.576Z,100772.69
2023-04-21T10:26:28.084Z,100766.25
2023-04-21T10:29:00.532Z,100760.56
2023-04-21T10:31:34.920Z,100767.28
2023-04-21T10:34:18.088Z,100756.25
2023-04-21T10:37:11.473Z,100744.44
2023-04-21T10:40:10.105Z,100753.16
2023-04-21T10:42:40.552Z,100755.25
2023-04-21T10:45:13.825Z,100749.09
2023-04-21T10:47:51.683Z,100748.69
2023-04-21T10:50:29.612Z,100750.75
2023-04-21T10:53:09.082Z,100740.97
2023-04-21T10:55:38.400Z,100740.66
2023-04-21T10:58:10.531Z,100737.53
2023-04-21T11:00:39.693Z,100735.81
2023-04-21T11:03:10.747Z,100725.66
2023-04-21T11:05:42.255Z,100726.78
2023-04-21T11:08:14.936Z,100735.47
2023-04-21T11:10:53.492Z,100726.34
2023-04-21T11:13:26.560Z,100714.47
2023-04-21T11:16:01.369Z,100717.69
2023-04-21T11:18:44.985Z,100719.84
2023-04-21T11:21:18.344Z,100700.47
2023-04-21T11:23:53.124Z,100698.78
2023-04-21T11:26:33.091Z,100685.72
2023-04-21T11:29:06.082Z,100693.09
2023-04-21T11:31:36.461Z,100690.91
2023-04-21T11:34:07.461Z,100685.13
2023-04-21T11:36:37.053Z,100689.16
2023-04-21T11:39:10.060Z,100684.34
2023-04-21T11:41:42.323Z,100673.16
2023-04-21T11:44:17.122Z,100682.31
2023-04-21T11:46:47.847Z,100678.97
2023-04-21T11:49:18.463Z,100681.38
2023-04-21T11:51:47.483Z,100678.31
2023-04-21T11:54:19.147Z,100679.63
2023-04-21T11:56:49.411Z,100676.88
2023-04-21T11:59:25.819Z,100670.91
2023-04-21T12:01:55.954Z,100660.69
2023-04-21T12:04:27.438Z,100651.00
2023-04-21T12:07:03.905Z,100656.44
2023-04-21T12:09:32.920Z,100659.75
2023-04-21T12:12:04.564Z,100662.66
2023-04-21T12:14:35.605Z,100655.22
2023-04-21T12:17:07.773Z,100658.47
2023-04-21T12:19:40.449Z,100647.97
2023-04-21T12:22:10.875Z,100643.47
2023-04-21T12:24:41.001Z,100631.44
2023-04-21T12:27:10.425Z,100632.50
2023-04-21T12:29:41.665Z,100627.16
2023-04-21T12:32:11.154Z,100628.13
2023-04-21T12:34:40.233Z,100624.97
2023-04-21T12:37:09.107Z,100626.81
2023-04-21T12:39:38.153Z,100632.34
2023-04-21T12:42:07.326Z,100630.00
2023-04-21T12:44:36.320Z,100615.78
2023-04-21T12:47:07.085Z,100612.78
2023-04-21T12:49:36.253Z,100610.41
2023-04-21T12:52:06.316Z,100616.41
2023-04-21T12:54:35.566Z,100604.56
2023-04-21T12:57:04.372Z,100606.22
2023-04-21T12:59:33.789Z,100604.91
2023-04-21T13:02:02.686Z,100603.22
2023-04-21T13:04:33.588Z,100601.38
2023-04-21T13:07:02.661Z,100587.84
2023-04-21T13:09:32.280Z,100594.03
2023-04-21T13:12:02.355Z,100588.53
2023-04-21T13:14:31.813Z,100599.38
2023-04-21T13:17:00.873Z,100582.00
2023-04-21T13:19:30.323Z,100586.69
2023-04-21T13:22:00.801Z,100570.63
2023-04-21T13:24:31.381Z,100578.47
2023-04-21T13:27:01.586Z,100576.19
2023-04-21T13:29:34.053Z,100570.66
2023-04-21T13:32:03.164Z,100571.31
2023-04-21T13:34:33.387Z,100564.63
2023-04-21T13:37:03.707Z,100573.00
2023-04-21T13:39:32.851Z,100569.81
2023-04-21T13:42:02.561Z,100570.06
2023-04-21T13:44:31.801Z,100559.66
2023-04-21T13:47:00.972Z,100562.28
2023-04-21T13:49:30.407Z,100556.38
2023-04-21T13:51:59.249Z,100562.03
2023-04-21T13:54:29.737Z,100559.03
2023-04-21T13:56:58.629Z,100551.84
2023-04-21T13:59:28.740Z,100548.38
2023-04-21T14:01:57.621Z,100548.56
2023-04-21T14:04:26.808Z,100542.91
2023-04-21T14:06:56.538Z,100537.91
2023-04-21T14:09:26.793Z,100532.59
2023-04-21T14:11:57.206Z,100541.16
2023-04-21T14:14:37.768Z,100529.97
2023-04-21T14:17:07.956Z,100532.56
2023-04-21T14:19:37.409Z,100531.00
2023-04-21T14:22:06.186Z,100531.88
2023-04-21T14:24:35.390Z,100522.84
2023-04-21T14:27:06.230Z,100530.06
2023-04-21T14:29:35.522Z,100528.25
2023-04-21T14:32:04.629Z,100518.44
2023-04-21T14:34:33.823Z,100507.72
2023-04-21T14:37:02.616Z,100507.13
2023-04-21T14:39:32.691Z,100506.41
2023-04-21T14:42:01.893Z,100505.47
2023-04-21T14:44:32.227Z,100509.81
2023-04-21T14:47:09.343Z,100505.88
2023-04-21T14:49:39.866Z,100508.63
2023-04-21T14:52:08.590Z,100500.00
2023-04-21T14:54:37.593Z,100494.03
2023-04-21T14:57:19.954Z,100495.72
2023-04-21T14:59:53.229Z,100503.44
2023-04-21T15:02:23.296Z,100491.75
2023-04-21T15:04:53.354Z,100488.56
2023-04-21T15:07:24.830Z,100481.56
2023-04-21T15:09:55.555Z,100481.56
2023-04-21T15:12:24.453Z,100485.38
2023-04-21T15:14:54.764Z,100477.69
2023-04-21T15:17:23.475Z,100476.03
2023-04-21T15:19:52.538Z,100476.22
2023-04-21T15:22:21.301Z,100475.22
2023-04-21T15:24:52.320Z,100471.72
2023-04-21T15:27:22.502Z,100468.72
2023-04-21T15:29:51.556Z,100469.38
2023-04-21T15:32:21.830Z,100465.53
2023-04-21T15:34:50.913Z,100463.53
2023-04-21T15:37:23.478Z,100469.56
2023-04-21T15:39:54.023Z,100455.72
2023-04-21T15:42:23.565Z,100461.03
2023-04-21T15:44:54.581Z,100457.88
2023-04-21T15:47:24.879Z,100459.34
2023-04-21T15:49:53.840Z,100462.03
2023-04-21T15:52:22.671Z,100453.03
2023-04-21T15:54:52.214Z,100447.69
2023-04-21T15:57:21.221Z,100451.03
2023-04-21T15:59:50.230Z,100445.38
2023-04-21T16:02:19.038Z,100449.53
2023-04-21T16:04:49.975Z,100448.84
2023-04-21T16:07:18.824Z,100446.53
2023-04-21T16:09:47.939Z,100449.22
2023-04-21T16:12:16.732Z,100444.03
2023-04-21T16:14:55.907Z,100441.34
2023-04-21T16:17:32.038Z,100448.69
2023-04-21T16:20:02.532Z,100436.63
2023-04-21T16:22:31.592Z,100439.28
2023-04-21T16:25:01.794Z,100441.47
2023-04-21T16:27:30.608Z,100442.25
2023-04-21T16:29:59.851Z,100436.22
2023-04-21T16:32:28.603Z,100439.19
2023-04-21T16:34:58.335Z,100439.84
2023-04-21T16:37:29.011Z,100429.00
2023-04-21T16:39:58.230Z,100436.28
2023-04-21T16:42:26.966Z,100435.94
2023-04-21T16:44:59.021Z,100442.91
2023-04-21T16:47:27.930Z,100441.88
2023-04-21T16:49:57.218Z,100440.78
2023-04-21T16:52:27.550Z,100440.06
2023-04-21T16:54:56.837Z,100436.72
2023-04-21T16:57:25.782Z,100435.84
2023-04-21T16:59:55.176Z,100438.28
2023-04-21T17:02:24.008Z,100436.94
2023-04-21T17:04:53.247Z,100438.72
2023-04-21T17:07:22.437Z,100439.34
2023-04-21T17:09:52.944Z,100438.97
2023-04-21T17:12:21.715Z,100445.91
2023-04-21T17:14:50.972Z,100438.47
2023-04-21T17:17:20.357Z,100435.53
2023-04-21T17:19:49.495Z,100435.78
2023-04-21T17:22:18.211Z,100434.88
2023-04-21T17:24:53.238Z,100434.16
2023-04-21T17:27:24.417Z,100432.81
2023-04-21T17:29:53.858Z,100430.75
2023-04-21T17:32:23.327Z,100435.31
2023-04-21T17:34:52.607Z,100436.31
2023-04-21T17:37:21.511Z,100437.19
2023-04-21T17:39:53.643Z,100444.09
2023-04-21T17:42:24.038Z,100443.72
2023-04-21T17:44:53.479Z,100443.06
2023-04-21T17:47:22.346Z,100439.06
2023-04-21T17:49:51.540Z,100452.38
2023-04-21T17:52:20.282Z,100446.00
2023-04-21T17:54:49.265Z,100448.94
2023-04-21T17:57:18.119Z,100458.75
2023-04-21T17:59:48.633Z,100450.66
2023-04-21T18:02:17.979Z,100459.50
2023-04-21T18:04:47.371Z,100454.91
2023-04-21T18:07:16.224Z,100465.28
2023-04-21T18:09:48.878Z,100458.31
2023-04-21T18:12:18.036Z,100456.94
2023-04-21T18:14:48.567Z,100457.66
2023-04-21T18:17:17.724Z,100450.50
2023-04-21T18:19:46.676Z,100455.84
2023-04-21T18:22:15.425Z,100450.50
2023-04-21T18:24:44.792Z,100452.03
2023-04-21T18:27:14.027Z,100454.66
2023-04-21T18:29:43.027Z,100452.97
2023-04-21T18:32:13.086Z,100455.72
2023-04-21T18:34:42.879Z,100456.56
2023-04-21T18:37:11.643Z,100451.34
2023-04-21T18:39:40.823Z,100451.19
2023-04-21T18:42:09.568Z,100455.47
2023-04-21T18:44:39.482Z,100452.94
2023-04-21T18:47:08.407Z,100453.34
2023-04-21T18:49:39.169Z,100454.38
2023-04-21T18:52:08.071Z,100459.47
2023-04-21T18:54:37.394Z,100454.00
2023-04-21T18:57:08.282Z,100451.16
2023-04-21T18:59:37.412Z,100450.25
2023-04-21T19:02:07.501Z,100444.75
2023-04-21T19:04:38.361Z,100446.50
2023-04-21T19:07:10.002Z,100449.94
2023-04-21T19:09:39.172Z,100445.28
2023-04-21T19:12:08.587Z,100449.16
2023-04-21T19:14:46.426Z,100451.34
2023-04-21T19:17:16.630Z,100447.66
2023-04-21T19:19:46.973Z,100451.78
2023-04-21T19:22:15.719Z,100445.28
2023-04-21T19:24:44.824Z,100445.91
2023-04-21T19:27:14.103Z,100446.25
2023-04-21T19:29:43.207Z,100448.84
2023-04-21T19:32:12.158Z,100444.97
2023-04-21T19:34:41.388Z,100431.53
2023-04-21T19:37:11.596Z,100438.16
2023-04-21T19:39:40.595Z,100430.84
2023-04-21T19:42:09.948Z,100441.78
2023-04-21T19:44:40.171Z,100444.06
2023-04-21T19:47:09.102Z,100447.47
2023-04-21T19:49:38.166Z,100444.56
2023-04-21T19:52:07.173Z,100450.22
2023-04-21T19:54:37.955Z,100448.78
2023-04-21T19:57:07.166Z,100453.69
2023-04-21T19:59:36.486Z,100456.09
2023-04-21T20:02:05.556Z,100453.06
2023-04-21T20:04:35.619Z,100460.50
2023-04-21T20:07:04.638Z,100458.31
2023-04-21T20:09:33.622Z,100456.88
2023-04-21T20:12:03.695Z,100455.19
2023-04-21T20:14:32.612Z,100458.09
2023-04-21T20:17:01.705Z,100452.44
2023-04-21T20:19:31.368Z,100453.38
2023-04-21T20:22:00.078Z,100459.72
2023-04-21T20:24:29.073Z,100451.06
2023-04-21T20:26:57.924Z,100455.97
2023-04-21T20:29:28.298Z,100458.13
2023-04-21T20:31:57.454Z,100455.22
2023-04-21T20:34:26.799Z,100462.63
2023-04-21T20:36:55.661Z,100467.16
2023-04-21T20:39:25.203Z,100462.47
2023-04-21T20:42:08.932Z,100455.75
2023-04-21T20:44:43.447Z,100455.34
2023-04-21T20:47:12.780Z,100462.28
2023-04-21T20:49:42.753Z,100461.47
2023-04-21T20:52:11.733Z,100461.91
2023-04-21T20:54:40.819Z,100463.69
2023-04-21T20:57:10.631Z,100459.38
2023-04-21T20:59:40.006Z,100468.47
2023-04-21T21:02:10.493Z,100459.72
2023-04-21T21:04:39.699Z,100462.59
2023-04-21T21:07:08.547Z,100457.31
2023-04-21T21:09:37.661Z,100455.72
2023-04-21T21:12:06.859Z,100454.16
2023-04-21T21:14:35.959Z,100456.91
2023-04-21T21:17:04.774Z,100452.59
2023-04-21T21:19:35.319Z,100456.19
2023-04-21T21:22:04.326Z,100456.31
2023-04-21T21:24:33.265Z,100449.94
2023-04-21T21:27:02.385Z,100449.84
2023-04-21T21:29:31.476Z,100452.47
2023-04-21T21:32:00.260Z,100457.03
2023-04-21T21:34:29.249Z,100446.38
2023-04-21T21:36:59.286Z,100446.25
2023-04-21T21:39:28.659Z,100454.38
2023-04-21T21:41:57.294Z,100449.34
2023-04-21T21:44:26.283Z,100449.59
2023-04-21T21:46:55.058Z,100442.63
2023-04-21T21:49:24.074Z,100438.63
2023-04-21T21:51:52.973Z,100450.22
2023-04-21T21:54:23.354Z,100446.34
2023-04-21T21:56:52.196Z,100447.66
2023-04-21T21:59:22.052Z,100449.63
2023-04-21T22:01:51.857Z,100449.25
2023-04-21T22:04:21.006Z,100448.59
2023-04-21T22:06:50.691Z,100448.22
2023-04-21T22:09:20.501Z,100441.47
2023-04-21T22:11:50.615Z,100447.06
2023-04-21T22:14:23.372Z,100456.03
2023-04-21T22:16:54.017Z,100458.97
2023-04-21T22:19:23.140Z,100448.00
2023-04-21T22:21:52.003Z,100454.44
2023-04-21T22:24:21.174Z,100451.19
2023-04-21T22:26:51.261Z,100444.31
2023-04-21T22:29:20.970Z,100445.59
2023-04-21T22:31:49.866Z,100448.44
2023-04-21T22:34:19.832Z,100444.34
2023-04-21T22:36:48.627Z,100437.94
2023-04-21T22:39:18.069Z,100442.56
2023-04-21T22:41:46.912Z,100442.97
2023-04-21T22:44:17.382Z,100444.13
2023-04-21T22:46:46.251Z,100444.44
2023-04-21T22:49:15.338Z,100441.91
2023-04-21T22:51:44.492Z,100434.53
2023-04-21T22:54:13.483Z,100437.38
2023-04-21T22:56:42.643Z,100441.16
2023-04-21T22:59:11.626Z,100439.78
2023-04-21T23:01:41.686Z,100433.03
2023-04-21T23:04:10.942Z,100436.81
2023-04-21T23:06:39.843Z,100441.53
2023-04-21T23:09:08.787Z,100449.00
2023-04-21T23:11:37.508Z,100444.44
2023-04-21T23:14:06.554Z,100442.41
2023-04-21T23:16:35.359Z,100445.25
2023-04-21T23:19:05.704Z,100444.50
2023-04-21T23:21:34.578Z,100439.47
2023-04-21T23:24:03.543Z,100442.38
2023-04-21T23:26:32.275Z,100432.47
2023-04-21T23:29:01.310Z,100436.47
2023-04-21T23:31:30.719Z,100441.72
2023-04-21T23:34:00.713Z,100440.78
2023-04-21T23:36:31.934Z,100441.72
2023-04-21T23:39:00.999Z,100448.88
2023-04-21T23:41:30.039Z,100446.25
2023-04-21T23:43:59.060Z,100434.13
2023-04-21T23:46:28.241Z,100438.66
2023-04-21T23:48:57.195Z,100434.31
2023-04-21T23:51:25.954Z,100440.44
2023-04-21T23:53:56.297Z,100443.81
2023-04-21T23:56:24.956Z,100443.06
2023-04-21T23:58:55.239Z,100432.47
